sensor_id;sensor_type;location;lat;lon;timestamp;pressure;altitude;pressure_sealevel;temperature;humidity
25084;BME280;13075;55.682;37.564;2022-12-29T00:02:12;99268.38;;;4.64;100.00
25084;BME280;13075;55.682;37.564;2022-12-29T00:04:38;99266.53;;;4.65;100.00
25084;BME280;13075;55.682;37.564;2022-12-29T00:07:05;99269.03;;;4.58;100.00
25084;BME280;13075;55.682;37.564;2022-12-29T00:09:31;99273.56;;;4.25;100.00
25084;BME280;13075;55.682;37.564;2022-12-29T00:11:57;99266.59;;;4.40;100.00
25084;BME280;13075;55.682;37.564;2022-12-29T00:14:23;99272.69;;;4.49;100.00
25084;BME280;13075;55.682;37.564;2022-12-29T00:17:07;99273.69;;;4.56;100.00
25084;BME280;13075;55.682;37.564;2022-12-29T00:19:33;99277.19;;;4.57;100.00
25084;BME280;13075;55.682;37.564;2022-12-29T00:22:17;99278.13;;;4.80;100.00
25084;BME280;13075;55.682;37.564;2022-12-29T00:25:01;99282.09;;;4.68;100.00
25084;BME280;13075;55.682;37.564;2022-12-29T00:27:28;99282.63;;;4.55;100.00
25084;BME280;13075;55.682;37.564;2022-12-29T00:30:19;99282.44;;;4.65;100.00
25084;BME280;13075;55.682;37.564;2022-12-29T00:33:16;99283.13;;;4.51;100.00
25084;BME280;13075;55.682;37.564;2022-12-29T00:36:08;99284.31;;;4.32;100.00
25084;BME280;13075;55.682;37.564;2022-12-29T00:38:37;99287.63;;;4.18;100.00
25084;BME280;13075;55.682;37.564;2022-12-29T00:41:22;99287.59;;;4.42;100.00
25084;BME280;13075;55.682;37.564;2022-12-29T00:44:06;99285.44;;;4.62;100.00
25084;BME280;13075;55.682;37.564;2022-12-29T00:46:33;99287.44;;;4.52;100.00
25084;BME280;13075;55.682;37.564;2022-12-29T00:49:00;99288.25;;;4.52;100.00
25084;BME280;13075;55.682;37.564;2022-12-29T00:51:44;99292.75;;;4.35;100.00
25084;BME280;13075;55.682;37.564;2022-12-29T00:54:10;99286.94;;;4.40;100.00
25084;BME280;13075;55.682;37.564;2022-12-29T00:56:36;99298.22;;;4.02;100.00
25084;BME280;13075;55.682;37.564;2022-12-29T00:59:08;99309.44;;;4.04;100.00
25084;BME280;13075;55.682;37.564;2022-12-29T01:01:35;99310.44;;;3.95;100.00
25084;BME280;13075;55.682;37.564;2022-12-29T01:04:02;99304.47;;;3.76;100.00
25084;BME280;13075;55.682;37.564;2022-12-29T01:06:28;99305.47;;;3.84;100.00
25084;BME280;13075;55.682;37.564;2022-12-29T01:08:53;99308.06;;;3.67;100.00
25084;BME280;13075;55.682;37.564;2022-12-29T01:11:38;99300.94;;;3.60;100.00
25084;BME280;13075;55.682;37.564;2022-12-29T01:14:05;99306.41;;;3.74;100.00
25084;BME280;13075;55.682;37.564;2022-12-29T01:16:31;99300.69;;;4.03;100.00
25084;BME280;13075;55.682;37.564;2022-12-29T01:18:57;99310.91;;;3.90;100.00
25084;BME280;13075;55.682;37.564;2022-12-29T01:21:23;99310.94;;;3.98;100.00
25084;BME280;13075;55.682;37.564;2022-12-29T01:23:50;99301.50;;;4.04;100.00
25084;BME280;13075;55.682;37.564;2022-12-29T01:26:16;99307.47;;;4.06;100.00
25084;BME280;13075;55.682;37.564;2022-12-29T01:28:42;99318.91;;;4.14;100.00
25084;BME280;13075;55.682;37.564;2022-12-29T01:31:13;99321.03;;;4.19;100.00
25084;BME280;13075;55.682;37.564;2022-12-29T01:33:39;99330.31;;;4.07;100.00
25084;BME280;13075;55.682;37.564;2022-12-29T01:36:08;99309.28;;;4.29;100.00
25084;BME280;13075;55.682;37.564;2022-12-29T01:38:36;99318.72;;;4.32;100.00
25084;BME280;13075;55.682;37.564;2022-12-29T01:41:02;99312.09;;;4.44;100.00
25084;BME280;13075;55.682;37.564;2022-12-29T01:46:36;99318.03;;;4.06;100.00
25084;BME280;13075;55.682;37.564;2022-12-29T01:49:14;99320.53;;;4.31;100.00
25084;BME280;13075;55.682;37.564;2022-12-29T01:51:55;99316.75;;;4.10;100.00
25084;BME280;13075;55.682;37.564;2022-12-29T01:54:31;99321.06;;;4.43;100.00
25084;BME280;13075;55.682;37.564;2022-12-29T01:57:01;99316.88;;;4.08;100.00
25084;BME280;13075;55.682;37.564;2022-12-29T01:59:38;99329.53;;;3.64;100.00
25084;BME280;13075;55.682;37.564;2022-12-29T02:02:05;99332.44;;;4.03;100.00
25084;BME280;13075;55.682;37.564;2022-12-29T02:04:32;99328.50;;;4.07;100.00
25084;BME280;13075;55.682;37.564;2022-12-29T02:07:04;99320.91;;;4.20;100.00
25084;BME280;13075;55.682;37.564;2022-12-29T02:09:31;99331.78;;;4.09;100.00
25084;BME280;13075;55.682;37.564;2022-12-29T02:11:58;99329.28;;;3.92;100.00
25084;BME280;13075;55.682;37.564;2022-12-29T02:14:24;99332.91;;;3.91;100.00
25084;BME280;13075;55.682;37.564;2022-12-29T02:28:22;99335.56;;;3.91;100.00
25084;BME280;13075;55.682;37.564;2022-12-29T02:38:59;99347.53;;;3.11;100.00
25084;BME280;13075;55.682;37.564;2022-12-29T02:49:36;99351.41;;;3.25;100.00
25084;BME280;13075;55.682;37.564;2022-12-29T02:52:15;99354.25;;;3.05;100.00
25084;BME280;13075;55.682;37.564;2022-12-29T02:54:41;99345.31;;;2.98;100.00
25084;BME280;13075;55.682;37.564;2022-12-29T02:57:33;99355.72;;;3.00;100.00
25084;BME280;13075;55.682;37.564;2022-12-29T03:00:15;99351.91;;;3.02;100.00
25084;BME280;13075;55.682;37.564;2022-12-29T03:03:06;99355.03;;;2.98;100.00
25084;BME280;13075;55.682;37.564;2022-12-29T03:06:17;99361.16;;;2.98;100.00
25084;BME280;13075;55.682;37.564;2022-12-29T03:08:50;99360.13;;;3.17;100.00
25084;BME280;13075;55.682;37.564;2022-12-29T03:11:24;99360.50;;;3.30;100.00
25084;BME280;13075;55.682;37.564;2022-12-29T03:14:27;99349.94;;;2.96;100.00
25084;BME280;13075;55.682;37.564;2022-12-29T03:17:26;99367.41;;;3.23;100.00
25084;BME280;13075;55.682;37.564;2022-12-29T03:20:00;99362.59;;;3.19;100.00
25084;BME280;13075;55.682;37.564;2022-12-29T03:22:31;99370.50;;;3.19;100.00
25084;BME280;13075;55.682;37.564;2022-12-29T03:25:31;99372.13;;;3.11;100.00
25084;BME280;13075;55.682;37.564;2022-12-29T03:28:10;99376.00;;;2.99;100.00
25084;BME280;13075;55.682;37.564;2022-12-29T03:30:41;99377.50;;;2.76;100.00
25084;BME280;13075;55.682;37.564;2022-12-29T03:33:09;99376.59;;;2.85;100.00
25084;BME280;13075;55.682;37.564;2022-12-29T03:35:40;99379.50;;;3.00;100.00
25084;BME280;13075;55.682;37.564;2022-12-29T03:40:46;99377.56;;;3.10;100.00
25084;BME280;13075;55.682;37.564;2022-12-29T03:43:14;99372.09;;;3.03;100.00
25084;BME280;13075;55.682;37.564;2022-12-29T03:45:41;99390.91;;;3.34;100.00
25084;BME280;13075;55.682;37.564;2022-12-29T03:48:07;99380.53;;;3.07;100.00
25084;BME280;13075;55.682;37.564;2022-12-29T03:50:32;99389.44;;;3.06;100.00
25084;BME280;13075;55.682;37.564;2022-12-29T03:52:58;99394.41;;;2.83;100.00
25084;BME280;13075;55.682;37.564;2022-12-29T03:55:25;99392.09;;;2.80;100.00
25084;BME280;13075;55.682;37.564;2022-12-29T03:57:52;99398.81;;;3.00;100.00
25084;BME280;13075;55.682;37.564;2022-12-29T04:00:26;99394.66;;;3.24;100.00
25084;BME280;13075;55.682;37.564;2022-12-29T04:02:52;99393.41;;;3.02;100.00
25084;BME280;13075;55.682;37.564;2022-12-29T04:05:20;99404.28;;;2.99;100.00
25084;BME280;13075;55.682;37.564;2022-12-29T04:07:48;99408.50;;;3.17;100.00
25084;BME280;13075;55.682;37.564;2022-12-29T04:10:14;99405.81;;;2.84;100.00
25084;BME280;13075;55.682;37.564;2022-12-29T04:12:39;99404.72;;;2.94;100.00
25084;BME280;13075;55.682;37.564;2022-12-29T04:15:08;99413.28;;;2.88;100.00
25084;BME280;13075;55.682;37.564;2022-12-29T04:17:34;99404.09;;;3.26;100.00
25084;BME280;13075;55.682;37.564;2022-12-29T04:20:01;99403.34;;;3.42;100.00
25084;BME280;13075;55.682;37.564;2022-12-29T04:22:44;99402.81;;;3.30;100.00
25084;BME280;13075;55.682;37.564;2022-12-29T04:25:10;99399.34;;;3.04;100.00
25084;BME280;13075;55.682;37.564;2022-12-29T04:27:36;99404.31;;;3.07;100.00
25084;BME280;13075;55.682;37.564;2022-12-29T04:30:20;99415.03;;;3.31;100.00
25084;BME280;13075;55.682;37.564;2022-12-29T04:33:00;99419.47;;;3.05;100.00
25084;BME280;13075;55.682;37.564;2022-12-29T04:35:27;99409.56;;;3.25;100.00
25084;BME280;13075;55.682;37.564;2022-12-29T04:37:53;99416.03;;;3.04;100.00
25084;BME280;13075;55.682;37.564;2022-12-29T04:40:19;99414.25;;;3.13;100.00
25084;BME280;13075;55.682;37.564;2022-12-29T04:42:44;99420.31;;;2.80;100.00
25084;BME280;13075;55.682;37.564;2022-12-29T04:45:10;99411.78;;;2.86;100.00
25084;BME280;13075;55.682;37.564;2022-12-29T04:47:49;99419.66;;;3.03;100.00
25084;BME280;13075;55.682;37.564;2022-12-29T04:50:33;99415.69;;;3.07;100.00
25084;BME280;13075;55.682;37.564;2022-12-29T04:53:14;99427.22;;;2.98;100.00
25084;BME280;13075;55.682;37.564;2022-12-29T04:55:41;99428.59;;;3.10;100.00
25084;BME280;13075;55.682;37.564;2022-12-29T04:58:07;99428.41;;;2.78;100.00
25084;BME280;13075;55.682;37.564;2022-12-29T05:00:34;99431.19;;;2.59;100.00
25084;BME280;13075;55.682;37.564;2022-12-29T05:03:00;99425.97;;;2.67;100.00
25084;BME280;13075;55.682;37.564;2022-12-29T05:05:26;99443.56;;;2.59;100.00
25084;BME280;13075;55.682;37.564;2022-12-29T05:07:52;99441.47;;;2.44;100.00
25084;BME280;13075;55.682;37.564;2022-12-29T05:10:18;99436.13;;;2.36;100.00
25084;BME280;13075;55.682;37.564;2022-12-29T05:12:43;99454.44;;;2.38;100.00
25084;BME280;13075;55.682;37.564;2022-12-29T05:15:11;99446.59;;;2.46;100.00
25084;BME280;13075;55.682;37.564;2022-12-29T05:17:37;99453.09;;;2.34;100.00
25084;BME280;13075;55.682;37.564;2022-12-29T05:20:05;99454.06;;;2.33;100.00
25084;BME280;13075;55.682;37.564;2022-12-29T05:22:32;99455.13;;;2.40;100.00
25084;BME280;13075;55.682;37.564;2022-12-29T05:24:58;99457.91;;;2.38;100.00
25084;BME280;13075;55.682;37.564;2022-12-29T05:27:24;99450.28;;;2.35;100.00
25084;BME280;13075;55.682;37.564;2022-12-29T05:30:13;99463.09;;;2.30;100.00
25084;BME280;13075;55.682;37.564;2022-12-29T05:32:39;99456.09;;;2.21;100.00
25084;BME280;13075;55.682;37.564;2022-12-29T05:35:06;99459.69;;;2.20;100.00
25084;BME280;13075;55.682;37.564;2022-12-29T05:37:33;99463.47;;;2.18;100.00
25084;BME280;13075;55.682;37.564;2022-12-29T05:39:58;99466.47;;;2.05;100.00
25084;BME280;13075;55.682;37.564;2022-12-29T05:42:24;99473.06;;;1.92;100.00
25084;BME280;13075;55.682;37.564;2022-12-29T05:45:13;99467.69;;;2.11;100.00
25084;BME280;13075;55.682;37.564;2022-12-29T05:48:02;99468.28;;;2.22;100.00
25084;BME280;13075;55.682;37.564;2022-12-29T05:50:49;99470.91;;;2.05;100.00
25084;BME280;13075;55.682;37.564;2022-12-29T05:53:17;99477.28;;;2.29;100.00
25084;BME280;13075;55.682;37.564;2022-12-29T05:55:44;99470.69;;;2.16;100.00
25084;BME280;13075;55.682;37.564;2022-12-29T05:58:11;99466.88;;;2.28;100.00
25084;BME280;13075;55.682;37.564;2022-12-29T06:00:37;99473.38;;;2.51;100.00
25084;BME280;13075;55.682;37.564;2022-12-29T06:03:03;99471.03;;;2.48;100.00
25084;BME280;13075;55.682;37.564;2022-12-29T06:05:29;99461.28;;;2.66;100.00
25084;BME280;13075;55.682;37.564;2022-12-29T06:07:56;99464.31;;;2.71;100.00
25084;BME280;13075;55.682;37.564;2022-12-29T06:10:22;99473.75;;;2.38;100.00
25084;BME280;13075;55.682;37.564;2022-12-29T06:12:56;99470.13;;;2.57;100.00
25084;BME280;13075;55.682;37.564;2022-12-29T06:15:21;99466.75;;;2.47;100.00
25084;BME280;13075;55.682;37.564;2022-12-29T06:17:49;99474.19;;;2.87;100.00
25084;BME280;13075;55.682;37.564;2022-12-29T06:20:14;99471.25;;;2.72;100.00
25084;BME280;13075;55.682;37.564;2022-12-29T06:22:41;99473.81;;;2.64;100.00
25084;BME280;13075;55.682;37.564;2022-12-29T06:25:07;99475.69;;;2.72;100.00
25084;BME280;13075;55.682;37.564;2022-12-29T06:27:34;99475.25;;;2.59;100.00
25084;BME280;13075;55.682;37.564;2022-12-29T06:30:00;99473.06;;;2.54;100.00
25084;BME280;13075;55.682;37.564;2022-12-29T06:32:25;99482.34;;;2.76;100.00
25084;BME280;13075;55.682;37.564;2022-12-29T06:34:54;99481.53;;;2.58;100.00
25084;BME280;13075;55.682;37.564;2022-12-29T06:37:20;99481.19;;;2.43;100.00
25084;BME280;13075;55.682;37.564;2022-12-29T06:39:45;99481.97;;;2.53;100.00
25084;BME280;13075;55.682;37.564;2022-12-29T06:42:13;99479.25;;;2.80;100.00
25084;BME280;13075;55.682;37.564;2022-12-29T06:44:39;99479.47;;;2.69;100.00
25084;BME280;13075;55.682;37.564;2022-12-29T06:47:08;99478.25;;;2.46;100.00
25084;BME280;13075;55.682;37.564;2022-12-29T06:49:34;99481.75;;;2.64;100.00
25084;BME280;13075;55.682;37.564;2022-12-29T06:51:59;99486.06;;;2.47;100.00
25084;BME280;13075;55.682;37.564;2022-12-29T06:54:28;99488.53;;;2.31;100.00
25084;BME280;13075;55.682;37.564;2022-12-29T06:56:54;99486.66;;;2.59;100.00
25084;BME280;13075;55.682;37.564;2022-12-29T06:59:19;99488.38;;;2.50;100.00
25084;BME280;13075;55.682;37.564;2022-12-29T07:01:45;99482.19;;;2.42;100.00
25084;BME280;13075;55.682;37.564;2022-12-29T07:04:11;99484.47;;;2.37;100.00
25084;BME280;13075;55.682;37.564;2022-12-29T07:06:36;99479.94;;;2.65;100.00
25084;BME280;13075;55.682;37.564;2022-12-29T07:09:02;99482.19;;;2.77;100.00
25084;BME280;13075;55.682;37.564;2022-12-29T07:11:27;99484.47;;;2.55;100.00
25084;BME280;13075;55.682;37.564;2022-12-29T07:13:53;99486.56;;;2.51;100.00
25084;BME280;13075;55.682;37.564;2022-12-29T07:16:19;99488.59;;;2.39;100.00
25084;BME280;13075;55.682;37.564;2022-12-29T07:18:45;99482.38;;;2.58;100.00
25084;BME280;13075;55.682;37.564;2022-12-29T07:21:11;99490.28;;;2.58;100.00
25084;BME280;13075;55.682;37.564;2022-12-29T07:23:37;99492.06;;;2.93;100.00
25084;BME280;13075;55.682;37.564;2022-12-29T07:26:05;99472.50;;;3.03;100.00
25084;BME280;13075;55.682;37.564;2022-12-29T07:28:30;99483.53;;;2.99;100.00
25084;BME280;13075;55.682;37.564;2022-12-29T07:30:58;99475.47;;;2.83;100.00
25084;BME280;13075;55.682;37.564;2022-12-29T07:33:24;99495.88;;;3.16;100.00
25084;BME280;13075;55.682;37.564;2022-12-29T07:35:49;99476.41;;;3.43;100.00
25084;BME280;13075;55.682;37.564;2022-12-29T07:38:15;99477.94;;;3.79;100.00
25084;BME280;13075;55.682;37.564;2022-12-29T07:40:42;99482.38;;;3.78;100.00
25084;BME280;13075;55.682;37.564;2022-12-29T07:43:08;99477.84;;;3.37;100.00
25084;BME280;13075;55.682;37.564;2022-12-29T07:45:40;99485.31;;;3.42;100.00
25084;BME280;13075;55.682;37.564;2022-12-29T07:48:08;99484.47;;;3.67;100.00
25084;BME280;13075;55.682;37.564;2022-12-29T07:50:35;99492.75;;;3.72;100.00
25084;BME280;13075;55.682;37.564;2022-12-29T07:53:01;99485.41;;;3.58;100.00
25084;BME280;13075;55.682;37.564;2022-12-29T07:55:27;99492.41;;;3.15;100.00
25084;BME280;13075;55.682;37.564;2022-12-29T07:57:54;99503.56;;;3.27;100.00
25084;BME280;13075;55.682;37.564;2022-12-29T08:00:20;99504.06;;;3.31;100.00
25084;BME280;13075;55.682;37.564;2022-12-29T08:02:46;99505.56;;;3.07;100.00
25084;BME280;13075;55.682;37.564;2022-12-29T08:05:11;99505.75;;;3.32;100.00
25084;BME280;13075;55.682;37.564;2022-12-29T08:07:37;99507.06;;;3.36;100.00
25084;BME280;13075;55.682;37.564;2022-12-29T08:10:03;99499.63;;;3.57;100.00
25084;BME280;13075;55.682;37.564;2022-12-29T08:12:29;99508.47;;;3.73;100.00
25084;BME280;13075;55.682;37.564;2022-12-29T08:14:55;99511.44;;;3.45;100.00
25084;BME280;13075;55.682;37.564;2022-12-29T08:17:20;99510.72;;;3.60;100.00
25084;BME280;13075;55.682;37.564;2022-12-29T08:19:46;99517.09;;;3.24;100.00
25084;BME280;13075;55.682;37.564;2022-12-29T08:22:13;99506.50;;;3.75;100.00
25084;BME280;13075;55.682;37.564;2022-12-29T08:24:40;99510.66;;;3.78;100.00
25084;BME280;13075;55.682;37.564;2022-12-29T08:27:06;99503.41;;;3.54;100.00
25084;BME280;13075;55.682;37.564;2022-12-29T08:29:32;99512.78;;;3.49;100.00
25084;BME280;13075;55.682;37.564;2022-12-29T08:31:57;99518.91;;;3.24;100.00
25084;BME280;13075;55.682;37.564;2022-12-29T08:34:23;99518.59;;;3.27;100.00
25084;BME280;13075;55.682;37.564;2022-12-29T08:36:49;99519.78;;;3.32;100.00
25084;BME280;13075;55.682;37.564;2022-12-29T08:39:14;99511.88;;;3.32;100.00
25084;BME280;13075;55.682;37.564;2022-12-29T08:41:40;99518.44;;;3.54;100.00
25084;BME280;13075;55.682;37.564;2022-12-29T08:44:06;99517.81;;;3.34;100.00
25084;BME280;13075;55.682;37.564;2022-12-29T08:46:32;99516.47;;;3.82;100.00
25084;BME280;13075;55.682;37.564;2022-12-29T08:48:57;99504.84;;;4.16;100.00
25084;BME280;13075;55.682;37.564;2022-12-29T08:51:23;99502.88;;;3.76;100.00
25084;BME280;13075;55.682;37.564;2022-12-29T08:53:48;99508.94;;;3.95;100.00
25084;BME280;13075;55.682;37.564;2022-12-29T08:56:14;99503.19;;;3.73;100.00
25084;BME280;13075;55.682;37.564;2022-12-29T08:58:47;99500.81;;;3.37;100.00
25084;BME280;13075;55.682;37.564;2022-12-29T09:01:13;99506.00;;;3.46;100.00
25084;BME280;13075;55.682;37.564;2022-12-29T09:03:38;99509.59;;;3.63;100.00
25084;BME280;13075;55.682;37.564;2022-12-29T09:06:04;99506.69;;;3.82;100.00
25084;BME280;13075;55.682;37.564;2022-12-29T09:08:29;99507.47;;;4.08;100.00
25084;BME280;13075;55.682;37.564;2022-12-29T09:10:55;99512.22;;;3.97;100.00
25084;BME280;13075;55.682;37.564;2022-12-29T09:13:30;99508.34;;;4.17;100.00
25084;BME280;13075;55.682;37.564;2022-12-29T09:15:59;99511.06;;;3.91;100.00
25084;BME280;13075;55.682;37.564;2022-12-29T09:18:25;99519.50;;;4.45;100.00
25084;BME280;13075;55.682;37.564;2022-12-29T09:21:02;99514.25;;;4.11;100.00
25084;BME280;13075;55.682;37.564;2022-12-29T09:23:28;99512.78;;;4.66;100.00
25084;BME280;13075;55.682;37.564;2022-12-29T09:25:54;99507.16;;;4.61;100.00
25084;BME280;13075;55.682;37.564;2022-12-29T09:28:21;99512.75;;;4.58;100.00
25084;BME280;13075;55.682;37.564;2022-12-29T09:30:47;99496.88;;;4.08;100.00
25084;BME280;13075;55.682;37.564;2022-12-29T09:33:13;99503.22;;;4.15;100.00
25084;BME280;13075;55.682;37.564;2022-12-29T09:35:43;99512.06;;;3.39;100.00
25084;BME280;13075;55.682;37.564;2022-12-29T09:38:09;99510.84;;;3.51;100.00
25084;BME280;13075;55.682;37.564;2022-12-29T09:40:35;99507.78;;;3.63;100.00
25084;BME280;13075;55.682;37.564;2022-12-29T09:51:43;99506.91;;;4.30;100.00
25084;BME280;13075;55.682;37.564;2022-12-29T09:56:47;99506.91;;;3.89;100.00
25084;BME280;13075;55.682;37.564;2022-12-29T09:59:20;99516.09;;;4.10;100.00
25084;BME280;13075;55.682;37.564;2022-12-29T10:01:53;99515.69;;;3.89;100.00
25084;BME280;13075;55.682;37.564;2022-12-29T10:04:20;99508.97;;;3.69;100.00
25084;BME280;13075;55.682;37.564;2022-12-29T10:06:57;99516.84;;;3.35;100.00
25084;BME280;13075;55.682;37.564;2022-12-29T10:18:37;99505.63;;;3.41;100.00
25084;BME280;13075;55.682;37.564;2022-12-29T10:21:49;99511.78;;;3.75;100.00
25084;BME280;13075;55.682;37.564;2022-12-29T10:24:21;99510.78;;;3.68;100.00
25084;BME280;13075;55.682;37.564;2022-12-29T10:26:48;99515.41;;;3.74;100.00
25084;BME280;13075;55.682;37.564;2022-12-29T10:29:21;99512.53;;;3.60;100.00
25084;BME280;13075;55.682;37.564;2022-12-29T10:32:02;99515.13;;;3.52;100.00
25084;BME280;13075;55.682;37.564;2022-12-29T10:34:37;99505.84;;;3.73;100.00
25084;BME280;13075;55.682;37.564;2022-12-29T10:37:11;99505.63;;;4.01;100.00
25084;BME280;13075;55.682;37.564;2022-12-29T10:39:59;99514.75;;;3.72;100.00
25084;BME280;13075;55.682;37.564;2022-12-29T10:42:38;99512.38;;;3.87;100.00
25084;BME280;13075;55.682;37.564;2022-12-29T10:45:15;99525.03;;;4.09;100.00
25084;BME280;13075;55.682;37.564;2022-12-29T10:48:12;99514.31;;;3.85;100.00
25084;BME280;13075;55.682;37.564;2022-12-29T10:50:36;99526.00;;;3.74;100.00
25084;BME280;13075;55.682;37.564;2022-12-29T10:53:15;99520.31;;;3.87;100.00
25084;BME280;13075;55.682;37.564;2022-12-29T10:55:44;99517.72;;;3.69;100.00
25084;BME280;13075;55.682;37.564;2022-12-29T10:58:13;99511.47;;;3.78;100.00
25084;BME280;13075;55.682;37.564;2022-12-29T11:00:40;99514.38;;;3.67;100.00
25084;BME280;13075;55.682;37.564;2022-12-29T11:05:57;99501.38;;;4.16;100.00
25084;BME280;13075;55.682;37.564;2022-12-29T11:08:34;99494.09;;;4.10;100.00
25084;BME280;13075;55.682;37.564;2022-12-29T11:11:10;99494.00;;;4.35;100.00
25084;BME280;13075;55.682;37.564;2022-12-29T11:13:50;99483.09;;;4.47;100.00
25084;BME280;13075;55.682;37.564;2022-12-29T11:16:33;99488.53;;;4.37;100.00
25084;BME280;13075;55.682;37.564;2022-12-29T11:19:00;99493.19;;;4.35;100.00
25084;BME280;13075;55.682;37.564;2022-12-29T11:21:35;99492.81;;;4.22;100.00
25084;BME280;13075;55.682;37.564;2022-12-29T11:24:27;99489.25;;;3.63;100.00
25084;BME280;13075;55.682;37.564;2022-12-29T11:27:17;99486.19;;;4.18;100.00
25084;BME280;13075;55.682;37.564;2022-12-29T11:29:45;99483.78;;;3.65;100.00
25084;BME280;13075;55.682;37.564;2022-12-29T11:32:22;99495.53;;;3.96;100.00
25084;BME280;13075;55.682;37.564;2022-12-29T11:34:48;99493.41;;;4.08;100.00
25084;BME280;13075;55.682;37.564;2022-12-29T11:37:18;99490.38;;;3.87;100.00
25084;BME280;13075;55.682;37.564;2022-12-29T11:39:47;99481.03;;;3.74;100.00
25084;BME280;13075;55.682;37.564;2022-12-29T11:42:17;99497.50;;;3.94;100.00
25084;BME280;13075;55.682;37.564;2022-12-29T11:44:46;99497.88;;;4.07;100.00
25084;BME280;13075;55.682;37.564;2022-12-29T11:47:26;99492.59;;;4.07;100.00
25084;BME280;13075;55.682;37.564;2022-12-29T11:50:05;99485.03;;;4.20;100.00
25084;BME280;13075;55.682;37.564;2022-12-29T11:52:34;99495.47;;;4.30;100.00
25084;BME280;13075;55.682;37.564;2022-12-29T11:55:03;99509.63;;;4.05;100.00
25084;BME280;13075;55.682;37.564;2022-12-29T11:57:32;99498.91;;;3.81;100.00
25084;BME280;13075;55.682;37.564;2022-12-29T12:00:03;99513.81;;;3.82;100.00
25084;BME280;13075;55.682;37.564;2022-12-29T12:05:47;99516.00;;;3.86;100.00
25084;BME280;13075;55.682;37.564;2022-12-29T12:14:02;99521.63;;;3.57;100.00
25084;BME280;13075;55.682;37.564;2022-12-29T12:16:54;99544.25;;;3.34;100.00
25084;BME280;13075;55.682;37.564;2022-12-29T12:19:40;99529.78;;;3.46;100.00
25084;BME280;13075;55.682;37.564;2022-12-29T12:22:13;99522.31;;;3.67;100.00
25084;BME280;13075;55.682;37.564;2022-12-29T12:24:52;99516.31;;;3.57;100.00
25084;BME280;13075;55.682;37.564;2022-12-29T12:27:39;99518.06;;;3.49;100.00
25084;BME280;13075;55.682;37.564;2022-12-29T12:30:21;99519.94;;;3.56;100.00
25084;BME280;13075;55.682;37.564;2022-12-29T12:35:37;99522.34;;;3.42;100.00
25084;BME280;13075;55.682;37.564;2022-12-29T12:40:55;99524.28;;;3.14;100.00
25084;BME280;13075;55.682;37.564;2022-12-29T12:43:43;99524.97;;;3.67;100.00
25084;BME280;13075;55.682;37.564;2022-12-29T12:57:30;99511.00;;;4.17;100.00
25084;BME280;13075;55.682;37.564;2022-12-29T13:00:13;99512.63;;;3.76;100.00
25084;BME280;13075;55.682;37.564;2022-12-29T13:05:44;99510.47;;;4.13;100.00
25084;BME280;13075;55.682;37.564;2022-12-29T13:20:08;99511.78;;;4.09;100.00
25084;BME280;13075;55.682;37.564;2022-12-29T13:22:50;99524.00;;;4.02;100.00
25084;BME280;13075;55.682;37.564;2022-12-29T13:25:39;99518.53;;;3.70;100.00
25084;BME280;13075;55.682;37.564;2022-12-29T13:39:05;99517.03;;;4.01;100.00
25084;BME280;13075;55.682;37.564;2022-12-29T13:41:42;99512.31;;;3.79;100.00
25084;BME280;13075;55.682;37.564;2022-12-29T13:44:15;99518.22;;;3.73;100.00
25084;BME280;13075;55.682;37.564;2022-12-29T13:46:43;99518.75;;;4.10;100.00
25084;BME280;13075;55.682;37.564;2022-12-29T13:49:17;99513.06;;;3.97;100.00
25084;BME280;13075;55.682;37.564;2022-12-29T13:51:50;99516.16;;;3.93;100.00
25084;BME280;13075;55.682;37.564;2022-12-29T13:54:43;99512.50;;;3.86;100.00
25084;BME280;13075;55.682;37.564;2022-12-29T14:06:02;99514.63;;;3.82;100.00
25084;BME280;13075;55.682;37.564;2022-12-29T14:08:04;99523.66;;;4.05;100.00
25084;BME280;13075;55.682;37.564;2022-12-29T14:10:37;99526.00;;;3.74;100.00
25084;BME280;13075;55.682;37.564;2022-12-29T14:13:12;99520.72;;;3.74;100.00
25084;BME280;13075;55.682;37.564;2022-12-29T14:15:40;99517.72;;;3.69;100.00
25084;BME280;13075;55.682;37.564;2022-12-29T14:21:03;99509.53;;;4.22;100.00
25084;BME280;13075;55.682;37.564;2022-12-29T14:23:44;99519.28;;;4.22;100.00
25084;BME280;13075;55.682;37.564;2022-12-29T14:26:13;99522.09;;;4.28;100.00
25084;BME280;13075;55.682;37.564;2022-12-29T14:28:44;99521.38;;;4.02;100.00
25084;BME280;13075;55.682;37.564;2022-12-29T14:36:41;99515.72;;;3.97;100.00
25084;BME280;13075;55.682;37.564;2022-12-29T14:50:06;99524.09;;;3.93;100.00
25084;BME280;13075;55.682;37.564;2022-12-29T14:57:44;99528.16;;;4.05;100.00
25084;BME280;13075;55.682;37.564;2022-12-29T15:00:32;99517.75;;;3.77;100.00
25084;BME280;13075;55.682;37.564;2022-12-29T15:03:04;99516.84;;;3.61;100.00
25084;BME280;13075;55.682;37.564;2022-12-29T15:05:42;99524.59;;;3.88;100.00
25084;BME280;13075;55.682;37.564;2022-12-29T15:08:10;99523.56;;;3.81;100.00
25084;BME280;13075;55.682;37.564;2022-12-29T15:13:36;99523.34;;;4.08;100.00
25084;BME280;13075;55.682;37.564;2022-12-29T15:16:03;99522.03;;;3.70;100.00
25084;BME280;13075;55.682;37.564;2022-12-29T15:18:31;99532.97;;;3.75;100.00
25084;BME280;13075;55.682;37.564;2022-12-29T15:21:00;99540.84;;;3.42;100.00
25084;BME280;13075;55.682;37.564;2022-12-29T15:23:28;99533.16;;;3.56;100.00
25084;BME280;13075;55.682;37.564;2022-12-29T15:26:01;99532.53;;;3.37;100.00
25084;BME280;13075;55.682;37.564;2022-12-29T15:28:40;99532.34;;;3.30;100.00
25084;BME280;13075;55.682;37.564;2022-12-29T15:33:39;99523.78;;;3.36;100.00
25084;BME280;13075;55.682;37.564;2022-12-29T15:36:15;99515.09;;;3.77;100.00
25084;BME280;13075;55.682;37.564;2022-12-29T15:38:44;99514.91;;;4.05;100.00